createdAt,value
2023-04-16T00:01:04.480Z,100807.73
2023-04-16T00:04:23.657Z,100809.05
2023-04-16T00:07:55.808Z,100808.62
2023-04-16T00:11:11.347Z,100809.55
2023-04-16T00:14:52.142Z,100810.79
2023-04-16T00:18:21.895Z,100808.08
2023-04-16T00:22:02.684Z,100809.25
2023-04-16T00:25:50.289Z,100810.73
2023-04-16T00:29:31.803Z,100809.42
2023-04-16T00:33:12.972Z,100805.20
2023-04-16T00:37:00.778Z,100806.48
2023-04-16T00:40:48.440Z,100798.18
2023-04-16T00:44:26.298Z,100803.94
2023-04-16T00:47:57.419Z,100809.13
2023-04-16T00:51:24.033Z,100812.13
2023-04-16T00:55:01.613Z,100818.02
2023-04-16T00:58:49.290Z,100820.82
2023-04-16T01:02:06.653Z,100827.48
2023-04-16T01:05:54.507Z,100833.77
2023-04-16T01:09:42.150Z,100828.39
2023-04-16T01:13:22.787Z,100827.86
2023-04-16T01:17:03.074Z,100833.99
2023-04-16T01:20:49.740Z,100840.91
2023-04-16T01:24:28.348Z,100847.46
2023-04-16T01:27:59.401Z,100842.65
2023-04-16T01:31:29.625Z,100847.17
2023-04-16T01:35:17.126Z,100848.01
2023-04-16T01:38:50.102Z,100846.60
2023-04-16T01:42:15.296Z,100844.47
2023-04-16T01:45:27.970Z,100841.42
2023-04-16T01:49:01.388Z,100843.42
2023-04-16T01:52:33.464Z,100842.55
2023-04-16T01:56:19.390Z,100843.39
2023-04-16T02:00:06.934Z,100846.27
2023-04-16T02:03:47.518Z,100841.41
2023-04-16T02:07:25.454Z,100839.92
2023-04-16T02:11:02.686Z,100838.87
2023-04-16T02:14:41.111Z,100840.17
2023-04-16T02:18:27.523Z,100841.62
2023-04-16T02:22:11.234Z,100839.49
2023-04-16T02:25:41.329Z,100840.59
2023-04-16T02:29:18.797Z,100840.06
2023-04-16T02:32:49.215Z,100844.45
2023-04-16T02:36:36.832Z,100846.42
2023-04-16T02:39:53.269Z,100850.59
2023-04-16T02:43:33.109Z,100855.36
2023-04-16T02:47:20.604Z,100851.71
2023-04-16T02:50:58.377Z,100848.61
2023-04-16T02:54:45.777Z,100851.30
2023-04-16T02:58:25.746Z,100851.05
2023-04-16T03:02:13.276Z,100857.55
2023-04-16T03:06:00.945Z,100856.42
2023-04-16T03:09:47.080Z,100857.47
2023-04-16T03:13:34.677Z,100860.97
2023-04-16T03:17:22.252Z,100868.38
2023-04-16T03:20:56.695Z,100870.94
2023-04-16T03:24:44.194Z,100871.09
2023-04-16T03:28:20.782Z,100868.34
2023-04-16T03:31:58.476Z,100870.70
2023-04-16T03:35:37.644Z,100871.42
2023-04-16T03:39:25.344Z,100873.27
2023-04-16T03:43:12.817Z,100881.08
2023-04-16T03:46:31.698Z,100884.44
2023-04-16T03:50:11.865Z,100885.71
2023-04-16T03:53:59.474Z,100888.67
2023-04-16T03:57:26.795Z,100894.81
2023-04-16T04:01:15.364Z,100902.55
2023-04-16T04:05:02.115Z,100914.59
2023-04-16T04:08:49.775Z,100920.79
2023-04-16T04:12:37.084Z,100929.55
2023-04-16T04:16:07.448Z,100936.27
2023-04-16T04:20:00.299Z,100940.00
2023-04-16T04:23:39.928Z,100944.00
2023-04-16T04:27:17.910Z,100943.67
2023-04-16T04:31:05.735Z,100941.25
2023-04-16T04:34:53.188Z,100945.83
2023-04-16T04:38:24.509Z,100947.71
2023-04-16T04:42:12.221Z,100951.34
2023-04-16T04:45:54.387Z,100948.95
2023-04-16T04:49:05.524Z,100952.48
2023-04-16T04:52:51.618Z,100955.15
2023-04-16T04:56:20.075Z,100952.45
2023-04-16T05:00:08.153Z,100952.91
2023-04-16T05:03:41.839Z,100960.17
2023-04-16T05:07:24.590Z,100959.38
2023-04-16T05:10:57.212Z,100961.68
2023-04-16T05:14:42.413Z,100963.85
2023-04-16T05:18:29.976Z,100964.19
2023-04-16T05:21:57.603Z,100966.25
2023-04-16T05:25:23.579Z,100967.92
2023-04-16T05:29:04.113Z,100968.19
2023-04-16T05:32:42.279Z,100971.09
2023-04-16T05:36:29.883Z,100975.70
2023-04-16T05:40:02.775Z,100982.66
2023-04-16T05:43:44.118Z,100984.68
2023-04-16T05:47:31.687Z,100990.16
2023-04-16T05:51:02.074Z,100989.26
2023-04-16T05:54:49.760Z,100994.94
2023-04-16T05:58:19.810Z,100993.11
2023-04-16T06:01:39.923Z,100992.56
2023-04-16T06:05:12.822Z,100989.45
2023-04-16T06:09:00.350Z,100996.39
2023-04-16T06:12:35.892Z,101002.28
2023-04-16T06:16:23.932Z,101006.41
2023-04-16T06:19:54.577Z,101009.27
2023-04-16T06:23:42.417Z,101021.13
2023-04-16T06:27:10.175Z,101026.15
2023-04-16T06:30:58.218Z,101027.56
2023-04-16T06:34:46.021Z,101028.27
2023-04-16T06:38:25.700Z,101028.35
2023-04-16T06:42:07.720Z,101031.94
2023-04-16T06:45:55.488Z,101029.03
2023-04-16T06:49:28.792Z,101030.20
2023-04-16T06:53:08.935Z,101028.81
2023-04-16T06:56:56.789Z,101034.72
2023-04-16T07:00:30.209Z,101035.13
2023-04-16T07:04:18.571Z,101037.22
2023-04-16T07:07:52.411Z,101043.17
2023-04-16T07:11:33.743Z,101046.35
2023-04-16T07:15:16.670Z,101051.30
2023-04-16T07:19:04.753Z,101051.76
2023-04-16T07:22:47.853Z,101049.19
2023-04-16T07:26:18.356Z,101044.84
2023-04-16T07:29:59.704Z,101044.81
2023-04-16T07:33:35.187Z,101049.03
2023-04-16T07:37:12.769Z,101054.45
2023-04-16T07:40:44.140Z,101057.86
2023-04-16T07:44:32.524Z,101058.25
2023-04-16T07:48:06.024Z,101057.23
2023-04-16T07:51:45.847Z,101053.46
2023-04-16T07:55:33.862Z,101050.16
2023-04-16T07:59:23.875Z,101051.77
2023-04-16T08:03:12.145Z,101055.76
2023-04-16T08:06:30.567Z,101058.17
2023-04-16T08:10:18.506Z,101054.67
2023-04-16T08:14:06.363Z,101057.23
2023-04-16T08:17:44.455Z,101057.70
2023-04-16T08:21:17.163Z,101065.13
2023-04-16T08:24:55.124Z,101059.70
2023-04-16T08:28:32.704Z,101055.12
2023-04-16T08:32:20.279Z,101060.83
2023-04-16T08:36:08.185Z,101068.05
2023-04-16T08:39:55.911Z,101069.98
2023-04-16T08:43:45.689Z,101073.25
2023-04-16T08:47:33.385Z,101077.50
2023-04-16T08:51:14.412Z,101078.98
2023-04-16T08:55:04.969Z,101082.20
2023-04-16T08:58:55.374Z,101083.38
2023-04-16T09:02:33.850Z,101078.98
2023-04-16T09:06:29.748Z,101076.74
2023-04-16T09:10:08.064Z,101079.80
2023-04-16T09:13:56.450Z,101084.86
2023-04-16T09:17:44.909Z,101089.82
2023-04-16T09:21:24.289Z,101095.45
2023-04-16T09:25:13.328Z,101099.80
2023-04-16T09:29:00.327Z,101101.73
2023-04-16T09:32:56.946Z,101103.69
2023-04-16T09:36:44.778Z,101102.04
2023-04-16T09:40:35.822Z,101100.17
2023-04-16T09:44:29.882Z,101101.13
2023-04-16T09:48:17.255Z,101104.80
2023-04-16T09:52:02.413Z,101105.71
2023-04-16T09:55:50.736Z,101104.52
2023-04-16T09:59:00.087Z,101105.15
2023-04-16T10:02:41.130Z,101106.34
2023-04-16T10:06:18.724Z,101109.99
2023-04-16T10:09:52.156Z,101107.95
2023-04-16T10:13:32.576Z,101109.53
2023-04-16T10:17:21.178Z,101118.27
2023-04-16T10:21:09.068Z,101115.01
2023-04-16T10:24:55.636Z,101115.55
2023-04-16T10:28:37.551Z,101120.38
2023-04-16T10:32:25.286Z,101116.82
2023-04-16T10:36:12.903Z,101121.71
2023-04-16T10:40:00.609Z,101123.88
2023-04-16T10:44:00.794Z,101130.25
2023-04-16T10:47:51.566Z,101133.56
2023-04-16T10:51:39.341Z,101137.11
2023-04-16T10:55:27.120Z,101136.69
2023-04-16T10:59:26.845Z,101138.05
2023-04-16T11:03:17.530Z,101141.98
2023-04-16T11:07:03.602Z,101142.56
2023-04-16T11:10:51.555Z,101145.91
2023-04-16T11:14:32.116Z,101144.56
2023-04-16T11:18:18.845Z,101146.92
2023-04-16T11:22:06.798Z,101147.27
2023-04-16T11:25:56.538Z,101140.46
2023-04-16T11:29:46.972Z,101141.42
2023-04-16T11:33:28.358Z,101138.66
2023-04-16T11:37:10.028Z,101136.77
2023-04-16T11:40:52.523Z,101134.42
2023-04-16T11:44:40.938Z,101137.04
2023-04-16T11:48:34.392Z,101141.52
2023-04-16T11:52:20.131Z,101146.63
2023-04-16T11:56:01.489Z,101138.89
2023-04-16T11:59:31.131Z,101147.67
2023-04-16T12:03:18.971Z,101146.91
2023-04-16T12:07:09.720Z,101151.96
2023-04-16T12:11:08.158Z,101152.42
2023-04-16T12:15:11.096Z,101152.61
2023-04-16T12:19:08.677Z,101157.41
2023-04-16T12:23:04.440Z,101161.33
2023-04-16T12:26:52.728Z,101161.16
2023-04-16T12:30:50.692Z,101165.77
2023-04-16T12:34:48.409Z,101166.89
2023-04-16T12:38:50.044Z,101172.60
2023-04-16T12:42:40.049Z,101173.12
2023-04-16T12:46:29.190Z,101175.84
2023-04-16T12:50:16.162Z,101180.42
2023-04-16T12:54:04.122Z,101182.02
2023-04-16T12:57:51.769Z,101181.98
2023-04-16T13:01:39.578Z,101184.88
2023-04-16T13:05:28.577Z,101185.60
2023-04-16T13:08:59.592Z,101196.91
2023-04-16T13:12:40.497Z,101202.98
2023-04-16T13:16:18.838Z,101213.30
2023-04-16T13:20:06.811Z,101222.77
2023-04-16T13:23:53.587Z,101236.89
2023-04-16T13:27:41.363Z,101263.08
2023-04-16T13:31:22.008Z,101268.03
2023-04-16T13:35:00.061Z,101270.69
2023-04-16T13:38:30.862Z,101261.82
2023-04-16T13:42:03.251Z,101244.09
2023-04-16T13:45:37.351Z,101239.42
2023-04-16T13:49:09.605Z,101241.85
2023-04-16T13:52:52.549Z,101250.21
2023-04-16T13:56:31.554Z,101253.06
2023-04-16T13:59:41.198Z,101252.38
2023-04-16T14:03:28.384Z,101253.23
2023-04-16T14:07:15.208Z,101248.48
2023-04-16T14:11:05.361Z,101248.06
2023-04-16T14:14:30.090Z,101238.95
2023-04-16T14:18:18.456Z,101237.81
2023-04-16T14:21:59.031Z,101241.45
2023-04-16T14:25:47.029Z,101237.63
2023-04-16T14:29:27.943Z,101239.04
2023-04-16T14:33:16.907Z,101240.70
2023-04-16T14:36:50.415Z,101240.56
2023-04-16T14:40:23.962Z,101243.70
2023-04-16T14:44:12.880Z,101242.92
2023-04-16T14:48:01.502Z,101248.33
2023-04-16T14:51:34.151Z,101246.10
2023-04-16T14:55:22.686Z,101248.38
2023-04-16T14:59:10.656Z,101243.98
2023-04-16T15:02:53.051Z,101243.83
2023-04-16T15:06:32.279Z,101246.21
2023-04-16T15:10:21.165Z,101244.86
2023-04-16T15:13:58.924Z,101252.77
2023-04-16T15:17:40.067Z,101256.35
2023-04-16T15:21:30.342Z,101261.95
2023-04-16T15:25:28.260Z,101266.06
2023-04-16T15:29:23.223Z,101268.72
2023-04-16T15:33:01.677Z,101269.16
2023-04-16T15:36:49.412Z,101270.74
2023-04-16T15:40:37.183Z,101269.13
2023-04-16T15:44:25.199Z,101274.18
2023-04-16T15:48:12.041Z,101271.50
2023-04-16T15:52:00.674Z,101273.95
2023-04-16T15:55:49.828Z,101278.17
2023-04-16T15:59:37.492Z,101277.05
2023-04-16T16:03:25.258Z,101279.24
2023-04-16T16:07:13.593Z,101285.19
2023-04-16T16:11:54.060Z,101286.18
2023-04-16T16:15:00.212Z,101288.84
2023-04-16T16:18:48.838Z,101289.38
2023-04-16T16:22:30.082Z,101292.61
2023-04-16T16:26:18.154Z,101294.33
2023-04-16T16:30:06.418Z,101296.66
2023-04-16T16:33:54.954Z,101300.69
2023-04-16T16:37:33.491Z,101304.07
2023-04-16T16:41:21.532Z,101310.06
2023-04-16T16:45:13.444Z,101312.14
2023-04-16T16:49:04.509Z,101315.15
2023-04-16T16:52:53.089Z,101317.21
2023-04-16T16:56:27.349Z,101318.56
2023-04-16T17:00:15.348Z,101320.36
2023-04-16T17:04:03.161Z,101330.31
2023-04-16T17:07:51.927Z,101338.61
2023-04-16T17:11:39.190Z,101342.93
2023-04-16T17:15:09.933Z,101344.65
2023-04-16T17:18:48.780Z,101348.99
2023-04-16T17:22:36.523Z,101353.12
2023-04-16T17:26:24.345Z,101354.05
2023-04-16T17:30:12.299Z,101364.66
2023-04-16T17:33:59.948Z,101365.80
2023-04-16T17:37:37.120Z,101371.14
2023-04-16T17:41:15.761Z,101371.54
2023-04-16T17:44:53.401Z,101375.33
2023-04-16T17:48:40.495Z,101374.28
2023-04-16T17:52:28.280Z,101376.64
2023-04-16T17:56:17.033Z,101384.54
2023-04-16T17:59:54.089Z,101387.17
2023-04-16T18:03:38.467Z,101393.39
2023-04-16T18:07:07.748Z,101394.98
2023-04-16T18:10:54.973Z,101405.41
2023-04-16T18:14:33.599Z,101409.48
2023-04-16T18:18:13.282Z,101414.19
2023-04-16T18:22:01.489Z,101416.13
2023-04-16T18:25:44.694Z,101423.35
2023-04-16T18:29:34.001Z,101431.16
2023-04-16T18:33:48.815Z,101435.33
2023-04-16T18:37:33.302Z,101437.77
2023-04-16T18:41:14.413Z,101441.93
2023-04-16T18:45:03.735Z,101448.56
2023-04-16T18:48:55.760Z,101452.36
2023-04-16T18:52:35.054Z,101455.26
2023-04-16T18:56:24.114Z,101455.20
2023-04-16T18:59:45.857Z,101456.72
2023-04-16T19:03:37.498Z,101458.39
2023-04-16T19:07:27.259Z,101460.14
2023-04-16T19:10:58.628Z,101460.64
2023-04-16T19:14:47.620Z,101463.67
2023-04-16T19:18:24.841Z,101461.52
2023-04-16T19:22:05.720Z,101465.17
2023-04-16T19:25:47.277Z,101468.42
2023-04-16T19:29:36.234Z,101475.13
2023-04-16T19:33:26.113Z,101469.92
2023-04-16T19:37:14.665Z,101473.52
2023-04-16T19:41:03.581Z,101470.56
2023-04-16T19:44:35.033Z,101469.77
2023-04-16T19:48:25.561Z,101472.80
2023-04-16T19:52:17.105Z,101476.20
2023-04-16T19:56:10.776Z,101478.25
2023-04-16T19:59:59.212Z,101471.67
2023-04-16T20:03:49.332Z,101472.17
2023-04-16T20:07:37.283Z,101479.34
2023-04-16T20:11:26.290Z,101480.02
2023-04-16T20:15:15.707Z,101477.59
2023-04-16T20:19:05.243Z,101477.80
2023-04-16T20:22:55.172Z,101479.83
2023-04-16T20:26:43.112Z,101478.52
2023-04-16T20:30:19.831Z,101475.03
2023-04-16T20:33:43.753Z,101477.17
2023-04-16T20:37:23.359Z,101478.11
2023-04-16T20:41:14.389Z,101476.94
2023-04-16T20:45:00.085Z,101478.90
2023-04-16T20:48:49.425Z,101484.46
2023-04-16T20:52:24.054Z,101486.23
2023-04-16T20:56:10.550Z,101486.52
2023-04-16T21:00:01.062Z,101483.86
2023-04-16T21:03:35.055Z,101488.44
2023-04-16T21:07:14.955Z,101493.00
2023-04-16T21:11:03.464Z,101496.20
2023-04-16T21:14:51.058Z,101496.92
2023-04-16T21:18:39.116Z,101493.48
2023-04-16T21:22:27.594Z,101494.15
2023-04-16T21:26:06.305Z,101494.11
2023-04-16T21:29:40.831Z,101490.95
2023-04-16T21:33:28.571Z,101490.59
2023-04-16T21:37:00.878Z,101492.61
2023-04-16T21:40:48.528Z,101488.05
2023-04-16T21:44:35.305Z,101492.30
2023-04-16T21:48:02.447Z,101490.07
2023-04-16T21:51:43.901Z,101495.79
2023-04-16T21:55:30.467Z,101502.75
2023-04-16T21:59:07.822Z,101503.92
2023-04-16T22:02:53.135Z,101501.85
2023-04-16T22:06:23.408Z,101501.74
2023-04-16T22:10:12.957Z,101505.20
2023-04-16T22:13:39.601Z,101503.35
2023-04-16T22:17:24.337Z,101508.26
2023-04-16T22:20:46.404Z,101509.00
2023-04-16T22:24:34.023Z,101507.30
2023-04-16T22:28:04.451Z,101507.60
2023-04-16T22:31:52.046Z,101506.96
2023-04-16T22:35:39.610Z,101506.27
2023-04-16T22:39:14.373Z,101505.85
2023-04-16T22:42:44.892Z,101505.36
2023-04-16T22:46:41.799Z,101502.13
2023-04-16T22:50:29.338Z,101504.73
2023-04-16T22:54:16.752Z,101505.29
2023-04-16T22:58:00.662Z,101507.81
2023-04-16T23:01:32.493Z,101507.83
2023-04-16T23:05:20.095Z,101506.39
2023-04-16T23:09:06.611Z,101507.05
2023-04-16T23:12:44.094Z,101503.98
2023-04-16T23:16:24.261Z,101503.19
2023-04-16T23:19:57.175Z,101502.61
2023-04-16T23:23:37.377Z,101497.34
2023-04-16T23:27:17.318Z,101498.98
2023-04-16T23:31:07.095Z,101498.69
2023-04-16T23:34:55.039Z,101497.92
2023-04-16T23:38:42.484Z,101496.16
2023-04-16T23:42:17.412Z,101497.94
2023-04-16T23:45:48.169Z,101497.38
2023-04-16T23:49:28.335Z,101499.24
2023-04-16T23:53:15.791Z,101496.73
2023-04-16T23:57:03.266Z,101494.51
